createdAt,value
2023-04-13T00:00:39.447Z,6.80
2023-04-13T00:03:21.647Z,6.90
2023-04-13T00:05:53.673Z,6.90
2023-04-13T00:08:28.005Z,6.90
2023-04-13T00:11:08.078Z,6.90
2023-04-13T00:13:41.720Z,7.00
2023-04-13T00:16:12.970Z,7.00
2023-04-13T00:18:46.889Z,7.10
2023-04-13T00:21:17.658Z,7.10
2023-04-13T00:23:46.699Z,7.20
2023-04-13T00:26:15.714Z,7.20
2023-04-13T00:28:45.048Z,7.20
2023-04-13T00:31:14.145Z,7.10
2023-04-13T00:33:45.458Z,7.10
2023-04-13T00:36:27.900Z,7.10
2023-04-13T00:39:03.916Z,7.00
2023-04-13T00:41:33.894Z,6.90
2023-04-13T00:44:05.243Z,6.80
2023-04-13T00:46:37.219Z,6.80
2023-04-13T00:49:13.048Z,6.70
2023-04-13T00:51:45.003Z,6.70
2023-04-13T00:54:15.998Z,6.60
2023-04-13T00:56:45.572Z,6.60
2023-04-13T00:59:15.591Z,6.60
2023-04-13T01:01:51.003Z,6.60
2023-04-13T01:04:26.332Z,6.60
2023-04-13T01:07:02.368Z,6.70
2023-04-13T01:09:36.454Z,6.60
2023-04-13T01:12:13.251Z,6.60
2023-04-13T01:14:49.713Z,6.70
2023-04-13T01:17:24.952Z,6.70
2023-04-13T01:20:01.654Z,6.80
2023-04-13T01:22:36.966Z,6.80
2023-04-13T01:25:30.798Z,6.90
2023-04-13T01:28:04.358Z,6.90
2023-04-13T01:30:37.591Z,7.00
2023-04-13T01:33:08.093Z,7.00
2023-04-13T01:35:39.854Z,7.10
2023-04-13T01:38:10.271Z,7.20
2023-04-13T01:40:41.751Z,7.30
2023-04-13T01:43:14.165Z,7.40
2023-04-13T01:46:01.170Z,7.50
2023-04-13T01:48:39.039Z,7.50
2023-04-13T01:51:39.013Z,7.60
2023-04-13T01:54:14.187Z,7.60
2023-04-13T01:56:49.270Z,7.60
2023-04-13T01:59:22.998Z,7.60
2023-04-13T02:01:52.410Z,7.70
2023-04-13T02:04:22.877Z,7.70
2023-04-13T02:06:53.137Z,7.70
2023-04-13T02:09:29.559Z,7.70
2023-04-13T02:11:58.339Z,7.70
2023-04-13T02:14:28.926Z,7.70
2023-04-13T02:16:58.213Z,7.70
2023-04-13T02:19:27.797Z,7.60
2023-04-13T02:21:56.989Z,7.50
2023-04-13T02:24:26.034Z,7.50
2023-04-13T02:26:56.778Z,7.50
2023-04-13T02:29:25.763Z,7.60
2023-04-13T02:31:55.960Z,7.60
2023-04-13T02:34:25.000Z,7.50
2023-04-13T02:36:54.140Z,7.50
2023-04-13T02:39:23.919Z,7.50
2023-04-13T02:41:53.064Z,7.50
2023-04-13T02:44:24.132Z,7.50
2023-04-13T02:46:59.596Z,7.40
2023-04-13T02:49:28.535Z,7.50
2023-04-13T02:52:12.569Z,7.70
2023-04-13T02:54:54.812Z,7.70
2023-04-13T02:57:27.776Z,7.70
2023-04-13T02:59:59.240Z,7.70
2023-04-13T03:02:37.441Z,7.80
2023-04-13T03:05:07.906Z,7.90
2023-04-13T03:07:38.067Z,7.90
2023-04-13T03:10:09.145Z,7.90
2023-04-13T03:12:38.731Z,8.00
2023-04-13T03:15:12.540Z,8.00
2023-04-13T03:17:44.279Z,8.00
2023-04-13T03:20:23.870Z,8.10
2023-04-13T03:22:58.901Z,8.10
2023-04-13T03:25:33.225Z,8.10
2023-04-13T03:28:03.283Z,8.00
2023-04-13T03:30:37.486Z,8.10
2023-04-13T03:33:08.044Z,8.10
2023-04-13T03:35:39.180Z,8.10
2023-04-13T03:38:15.076Z,8.10
2023-04-13T03:40:46.513Z,8.10
2023-04-13T03:43:16.507Z,8.00
2023-04-13T03:45:50.886Z,8.00
2023-04-13T03:48:22.849Z,8.00
2023-04-13T03:50:52.235Z,8.00
2023-04-13T03:53:26.578Z,8.00
2023-04-13T03:55:58.367Z,8.00
2023-04-13T03:58:27.322Z,7.90
2023-04-13T04:00:56.127Z,7.90
2023-04-13T04:03:39.358Z,7.90
2023-04-13T04:06:11.505Z,7.90
2023-04-13T04:08:45.531Z,7.80
2023-04-13T04:11:27.286Z,7.70
2023-04-13T04:13:56.386Z,7.60
2023-04-13T04:16:26.835Z,7.60
2023-04-13T04:19:06.372Z,7.60
2023-04-13T04:21:36.177Z,7.60
2023-04-13T04:24:12.623Z,7.60
2023-04-13T04:26:50.574Z,7.60
2023-04-13T04:29:22.396Z,7.70
2023-04-13T04:31:56.366Z,7.70
2023-04-13T04:34:27.727Z,7.70
2023-04-13T04:37:02.265Z,7.70
2023-04-13T04:39:35.350Z,7.70
2023-04-13T04:42:12.736Z,7.70
2023-04-13T04:44:45.121Z,7.60
2023-04-13T04:47:17.047Z,7.60
2023-04-13T04:50:05.321Z,7.60
2023-04-13T04:52:39.477Z,7.50
2023-04-13T04:55:09.654Z,7.50
2023-04-13T04:57:41.692Z,7.50
2023-04-13T05:00:15.718Z,7.50
2023-04-13T05:02:51.210Z,7.50
2023-04-13T05:05:22.871Z,7.50
2023-04-13T05:07:52.252Z,7.50
2023-04-13T05:10:24.711Z,7.50
2023-04-13T05:12:57.634Z,7.40
2023-04-13T05:15:28.466Z,7.40
2023-04-13T05:17:58.357Z,7.40
2023-04-13T05:20:32.442Z,7.40
2023-04-13T05:23:05.430Z,7.40
2023-04-13T05:25:39.855Z,7.40
2023-04-13T05:28:16.847Z,7.40
2023-04-13T05:30:46.080Z,7.40
2023-04-13T05:33:17.186Z,7.50
2023-04-13T05:35:49.774Z,7.60
2023-04-13T05:38:18.625Z,7.80
2023-04-13T05:40:47.799Z,7.90
2023-04-13T05:43:18.125Z,8.00
2023-04-13T05:45:51.263Z,8.00
2023-04-13T05:48:20.954Z,8.10
2023-04-13T05:50:52.686Z,8.10
2023-04-13T05:53:21.732Z,8.10
2023-04-13T05:55:56.010Z,8.20
2023-04-13T05:58:27.128Z,8.30
2023-04-13T06:01:11.422Z,8.30
2023-04-13T06:03:40.513Z,8.30
2023-04-13T06:06:11.938Z,8.20
2023-04-13T06:08:41.190Z,8.20
2023-04-13T06:11:10.482Z,8.10
2023-04-13T06:13:41.273Z,8.10
2023-04-13T06:16:10.997Z,8.10
2023-04-13T06:18:39.946Z,8.10
2023-04-13T06:21:11.657Z,8.10
2023-04-13T06:23:40.779Z,8.20
2023-04-13T06:26:20.195Z,8.30
2023-04-13T06:28:55.046Z,8.30
2023-04-13T06:31:44.147Z,8.40
2023-04-13T06:34:32.906Z,8.50
2023-04-13T06:37:24.401Z,8.60
2023-04-13T06:39:55.647Z,8.70
2023-04-13T06:42:25.010Z,8.80
2023-04-13T06:45:14.675Z,8.70
2023-04-13T06:47:46.121Z,8.80
2023-04-13T06:50:17.651Z,8.90
2023-04-13T06:52:50.437Z,8.90
2023-04-13T06:55:19.516Z,8.80
2023-04-13T06:57:49.583Z,8.90
2023-04-13T07:00:29.557Z,8.90
2023-04-13T07:03:02.338Z,9.00
2023-04-13T07:05:32.678Z,9.10
2023-04-13T07:08:09.034Z,9.20
2023-04-13T07:10:41.130Z,9.20
2023-04-13T07:13:18.778Z,9.40
2023-04-13T07:15:48.617Z,9.50
2023-04-13T07:18:17.737Z,9.60
2023-04-13T07:20:53.300Z,9.50
2023-04-13T07:23:29.434Z,9.40
2023-04-13T07:25:58.898Z,9.30
2023-04-13T07:28:29.147Z,9.30
2023-04-13T07:31:04.146Z,9.40
2023-04-13T07:33:33.403Z,9.20
2023-04-13T07:36:02.534Z,9.10
2023-04-13T07:38:35.389Z,9.00
2023-04-13T07:41:04.879Z,8.90
2023-04-13T07:43:37.779Z,8.90
2023-04-13T07:46:12.876Z,9.00
2023-04-13T07:48:44.788Z,9.20
2023-04-13T07:51:24.902Z,9.10
2023-04-13T07:53:55.866Z,9.20
2023-04-13T07:56:27.926Z,9.20
2023-04-13T07:58:57.082Z,9.20
2023-04-13T08:01:28.928Z,9.20
2023-04-13T08:04:05.287Z,9.30
2023-04-13T08:06:36.132Z,9.30
2023-04-13T08:09:07.137Z,9.30
2023-04-13T08:11:36.455Z,9.40
2023-04-13T08:14:10.106Z,9.40
2023-04-13T08:16:41.978Z,9.40
2023-04-13T08:19:14.988Z,9.50
2023-04-13T08:21:50.237Z,9.50
2023-04-13T08:24:22.106Z,9.70
2023-04-13T08:26:52.565Z,9.80
2023-04-13T08:29:21.319Z,9.80
2023-04-13T08:31:50.860Z,9.80
2023-04-13T08:34:21.819Z,9.80
2023-04-13T08:36:51.210Z,9.80
2023-04-13T08:39:21.881Z,9.90
2023-04-13T08:41:50.914Z,9.90
2023-04-13T08:44:22.773Z,9.90
2023-04-13T08:46:58.920Z,9.90
2023-04-13T08:49:39.564Z,9.80
2023-04-13T08:52:51.047Z,10.00
2023-04-13T08:55:30.240Z,10.20
2023-04-13T08:58:06.696Z,10.00
2023-04-13T09:00:42.240Z,9.80
2023-04-13T09:03:16.561Z,9.70
2023-04-13T09:06:01.556Z,9.80
2023-04-13T09:08:38.852Z,9.90
2023-04-13T09:11:15.038Z,10.00
2023-04-13T09:13:59.863Z,10.30
2023-04-13T09:16:30.106Z,10.60
2023-04-13T09:19:15.632Z,11.00
2023-04-13T09:21:54.301Z,11.40
2023-04-13T09:24:27.906Z,11.50
2023-04-13T09:27:04.634Z,11.70
2023-04-13T09:29:48.936Z,12.10
2023-04-13T09:32:28.988Z,12.30
2023-04-13T09:35:07.044Z,12.20
2023-04-13T09:37:51.340Z,11.80
2023-04-13T09:40:22.758Z,11.50
2023-04-13T09:43:06.055Z,11.30
2023-04-13T09:45:37.352Z,11.30
2023-04-13T09:48:22.784Z,11.20
2023-04-13T09:51:13.584Z,11.10
2023-04-13T09:53:49.632Z,11.10
2023-04-13T09:56:22.435Z,11.20
2023-04-13T09:58:54.088Z,11.30
2023-04-13T10:01:29.441Z,11.10
2023-04-13T10:04:09.211Z,11.10
2023-04-13T10:06:46.191Z,11.00
2023-04-13T10:09:21.535Z,10.90
2023-04-13T10:12:04.080Z,10.90
2023-04-13T10:14:45.940Z,10.90
2023-04-13T10:17:37.878Z,11.00
2023-04-13T10:20:20.945Z,11.20
2023-04-13T10:22:57.295Z,11.50
2023-04-13T10:25:35.739Z,11.60
2023-04-13T10:28:15.605Z,11.80
2023-04-13T10:30:54.872Z,12.00
2023-04-13T10:33:32.381Z,12.00
2023-04-13T10:36:05.781Z,12.10
2023-04-13T10:38:49.332Z,12.70
2023-04-13T10:41:37.553Z,13.10
2023-04-13T10:44:19.131Z,13.60
2023-04-13T10:47:02.163Z,13.70
2023-04-13T10:49:39.793Z,14.10
2023-04-13T10:52:23.513Z,14.30
2023-04-13T10:55:10.921Z,14.20
2023-04-13T10:58:04.039Z,13.40
2023-04-13T11:03:18.524Z,12.90
2023-04-13T11:06:00.772Z,12.80
2023-04-13T11:08:37.551Z,12.90
2023-04-13T11:11:18.897Z,13.00
2023-04-13T11:14:01.305Z,13.30
2023-04-13T11:16:46.897Z,13.50
2023-04-13T11:19:27.695Z,13.50
2023-04-13T11:22:13.543Z,13.30
2023-04-13T11:24:48.815Z,13.20
2023-04-13T11:27:29.389Z,13.10
2023-04-13T11:30:06.075Z,13.10
2023-04-13T11:32:43.974Z,13.10
2023-04-13T11:35:22.930Z,13.10
2023-04-13T11:38:00.431Z,13.20
2023-04-13T11:40:38.486Z,13.10
2023-04-13T11:43:20.820Z,13.20
2023-04-13T11:46:03.166Z,13.70
2023-04-13T11:48:36.791Z,13.70
2023-04-13T11:51:25.623Z,13.60
2023-04-13T12:01:37.533Z,14.30
2023-04-13T12:08:34.100Z,17.40
2023-04-13T12:15:45.205Z,16.80
2023-04-13T12:22:38.752Z,17.30
2023-04-13T12:25:36.808Z,17.80
2023-04-13T12:29:18.838Z,17.90
2023-04-13T12:32:56.432Z,17.80
2023-04-13T12:36:50.851Z,16.50
2023-04-13T12:44:18.572Z,14.70
2023-04-13T12:47:15.596Z,14.40
2023-04-13T12:50:24.326Z,14.70
2023-04-13T12:53:39.400Z,16.90
2023-04-13T13:00:26.553Z,19.70
2023-04-13T13:07:41.862Z,16.20
2023-04-13T13:10:46.813Z,15.60
2023-04-13T13:13:41.823Z,15.90
2023-04-13T13:16:53.814Z,15.70
2023-04-13T13:20:03.257Z,15.50
2023-04-13T13:22:44.197Z,15.40
2023-04-13T13:28:42.208Z,16.30
2023-04-13T13:32:27.507Z,18.40
2023-04-13T13:35:22.563Z,19.60
2023-04-13T13:53:27.375Z,20.70
2023-04-13T13:59:46.381Z,20.40
2023-04-13T14:02:28.333Z,17.90
2023-04-13T14:05:17.518Z,19.30
2023-04-13T14:07:58.146Z,20.80
2023-04-13T14:11:12.988Z,20.20
2023-04-13T14:17:08.050Z,17.40
2023-04-13T14:20:31.183Z,17.20
2023-04-13T14:23:19.499Z,16.80
2023-04-13T14:26:35.218Z,17.70
2023-04-13T14:29:36.648Z,18.20
2023-04-13T14:32:27.186Z,17.70
2023-04-13T14:34:57.242Z,17.20
2023-04-13T14:37:39.891Z,17.30
2023-04-13T14:40:28.754Z,17.10
2023-04-13T14:43:11.776Z,16.70
2023-04-13T14:46:12.241Z,16.50
2023-04-13T14:49:02.634Z,17.00
2023-04-13T14:51:34.676Z,17.60
2023-04-13T14:54:09.576Z,17.40
2023-04-13T14:57:19.347Z,17.20
2023-04-13T15:00:20.926Z,17.90
2023-04-13T15:02:57.308Z,20.30
2023-04-13T15:08:24.284Z,24.00
2023-04-13T15:10:59.593Z,24.60
2023-04-13T15:13:31.076Z,23.80
2023-04-13T15:16:11.919Z,22.00
2023-04-13T15:18:47.418Z,21.50
2023-04-13T15:21:40.631Z,21.10
2023-04-13T15:24:11.864Z,19.50
2023-04-13T15:26:48.450Z,18.70
2023-04-13T15:29:17.787Z,20.30
2023-04-13T15:31:58.508Z,22.10
2023-04-13T15:34:40.991Z,23.50
2023-04-13T15:37:15.406Z,23.00
2023-04-13T15:39:49.757Z,22.10
2023-04-13T15:42:37.277Z,21.60
2023-04-13T15:45:26.966Z,22.00
2023-04-13T15:47:59.551Z,21.70
2023-04-13T15:50:30.757Z,21.60
2023-04-13T15:53:00.424Z,21.20
2023-04-13T15:55:40.702Z,21.80
2023-04-13T15:58:22.356Z,22.40
2023-04-13T16:01:12.873Z,22.80
2023-04-13T16:04:14.009Z,22.30
2023-04-13T16:07:13.783Z,21.90
2023-04-13T16:10:09.941Z,22.60
2023-04-13T16:16:00.619Z,22.90
2023-04-13T16:18:43.526Z,21.80
2023-04-13T16:21:20.426Z,20.90
2023-04-13T16:23:58.716Z,20.30
2023-04-13T16:26:33.568Z,19.70
2023-04-13T16:29:02.961Z,19.50
2023-04-13T16:31:57.626Z,18.60
2023-04-13T16:34:35.789Z,18.60
2023-04-13T16:37:59.666Z,18.80
2023-04-13T16:40:34.322Z,20.00
2023-04-13T16:43:32.129Z,21.00
2023-04-13T16:46:30.949Z,21.80
2023-04-13T16:49:21.200Z,21.10
2023-04-13T16:52:28.209Z,20.60
2023-04-13T16:55:09.536Z,21.00
2023-04-13T16:57:53.220Z,20.00
2023-04-13T17:00:41.748Z,19.10
2023-04-13T17:03:21.169Z,18.70
2023-04-13T17:06:40.378Z,19.20
2023-04-13T17:09:30.265Z,19.20
2023-04-13T17:12:49.914Z,19.80
2023-04-13T17:15:39.818Z,21.50
2023-04-13T17:18:53.304Z,21.40
2023-04-13T17:21:31.854Z,20.10
2023-04-13T17:24:38.012Z,19.60
2023-04-13T17:27:24.303Z,19.00
2023-04-13T17:30:28.344Z,18.70
2023-04-13T17:33:02.076Z,18.30
2023-04-13T17:35:47.113Z,17.90
2023-04-13T17:38:31.160Z,17.40
2023-04-13T17:41:01.536Z,16.70
2023-04-13T17:44:00.836Z,16.10
2023-04-13T17:46:56.873Z,15.60
2023-04-13T17:49:57.334Z,15.50
2023-04-13T17:53:16.184Z,15.30
2023-04-13T17:56:07.721Z,15.10
2023-04-13T17:59:15.605Z,14.80
2023-04-13T18:02:40.658Z,14.40
2023-04-13T18:06:33.529Z,14.00
2023-04-13T18:34:37.366Z,11.70
2023-04-13T18:37:49.219Z,11.40
2023-04-13T18:46:00.310Z,10.80
2023-04-13T18:49:24.940Z,10.30
2023-04-13T18:52:14.139Z,10.00
2023-04-13T18:57:50.195Z,9.40
2023-04-13T19:00:31.468Z,9.10
2023-04-13T19:03:17.206Z,9.20
2023-04-13T19:05:50.993Z,9.20
2023-04-13T19:08:28.185Z,9.00
2023-04-13T19:11:15.852Z,8.70
2023-04-13T19:13:52.292Z,8.50
2023-04-13T19:16:28.889Z,8.40
2023-04-13T19:19:03.283Z,8.20
2023-04-13T19:21:44.651Z,8.00
2023-04-13T19:24:19.165Z,8.00
2023-04-13T19:27:05.661Z,7.80
2023-04-13T19:29:41.809Z,7.70
2023-04-13T19:32:24.269Z,7.50
2023-04-13T19:35:03.040Z,7.50
2023-04-13T19:37:46.335Z,7.40
2023-04-13T19:40:29.329Z,7.20
2023-04-13T19:43:12.468Z,7.20
2023-04-13T19:45:53.979Z,7.10
2023-04-13T19:48:36.109Z,7.10
2023-04-13T19:51:12.786Z,7.10
2023-04-13T19:53:46.756Z,7.20
2023-04-13T19:56:22.256Z,7.10
2023-04-13T19:59:00.536Z,7.20
2023-04-13T20:01:38.215Z,7.20
2023-04-13T20:04:15.826Z,7.20
2023-04-13T20:06:51.147Z,7.20
2023-04-13T20:09:23.690Z,7.20
2023-04-13T20:11:58.020Z,7.30
2023-04-13T20:14:43.965Z,7.20
2023-04-13T20:17:17.272Z,7.10
2023-04-13T20:19:53.898Z,7.00
2023-04-13T20:22:28.726Z,6.80
2023-04-13T20:25:02.296Z,6.80
2023-04-13T20:27:48.194Z,6.80
2023-04-13T20:30:22.817Z,6.70
2023-04-13T20:33:05.623Z,6.60
2023-04-13T20:35:43.766Z,6.40
2023-04-13T20:38:26.201Z,6.40
2023-04-13T20:41:03.188Z,6.40
2023-04-13T20:43:40.678Z,6.40
2023-04-13T20:46:19.169Z,6.30
2023-04-13T20:48:56.338Z,6.40
2023-04-13T20:51:32.701Z,6.60
2023-04-13T20:54:15.934Z,6.70
2023-04-13T20:56:53.380Z,6.60
2023-04-13T20:59:40.637Z,6.50
2023-04-13T21:02:26.892Z,6.30
2023-04-13T21:05:03.697Z,6.10
2023-04-13T21:07:39.809Z,5.90
2023-04-13T21:10:16.761Z,5.90
2023-04-13T21:12:57.788Z,6.00
2023-04-13T21:15:37.678Z,6.20
2023-04-13T21:18:14.525Z,6.50
2023-04-13T21:21:03.644Z,6.80
2023-04-13T21:24:02.811Z,7.10
2023-04-13T21:27:29.619Z,7.30
2023-04-13T21:30:33.169Z,7.30
2023-04-13T21:34:02.752Z,7.20
2023-04-13T21:37:11.089Z,7.40
2023-04-13T21:39:59.791Z,7.60
2023-04-13T21:42:57.804Z,7.80
2023-04-13T21:46:10.200Z,7.90
2023-04-13T21:53:28.355Z,8.10
2023-04-13T21:56:10.138Z,8.00
2023-04-13T21:59:07.444Z,7.90
2023-04-13T22:01:47.554Z,7.90
2023-04-13T22:04:24.607Z,8.10
2023-04-13T22:07:11.413Z,8.20
2023-04-13T22:09:58.342Z,8.20
2023-04-13T22:12:51.434Z,8.20
2023-04-13T22:15:27.353Z,8.10
2023-04-13T22:18:01.197Z,8.10
2023-04-13T22:20:53.814Z,8.10
2023-04-13T22:23:44.548Z,8.10
2023-04-13T22:26:49.191Z,7.90
2023-04-13T22:29:37.852Z,7.80
2023-04-13T22:32:17.476Z,7.70
2023-04-13T22:34:52.123Z,7.60
2023-04-13T22:37:26.610Z,7.40
2023-04-13T22:39:55.983Z,7.10
2023-04-13T22:42:27.211Z,6.90
2023-04-13T22:44:59.651Z,6.80
2023-04-13T22:47:31.195Z,6.80
2023-04-13T22:50:09.398Z,6.90
2023-04-13T22:52:47.114Z,6.80
2023-04-13T22:55:21.443Z,6.70
2023-04-13T22:57:53.117Z,6.50
2023-04-13T23:00:22.508Z,6.30
2023-04-13T23:02:59.420Z,6.00
2023-04-13T23:05:33.910Z,5.80
2023-04-13T23:08:09.058Z,5.70
2023-04-13T23:10:41.979Z,5.60
2023-04-13T23:13:24.078Z,5.50
2023-04-13T23:16:06.211Z,5.50
2023-04-13T23:18:44.258Z,5.30
2023-04-13T23:21:17.580Z,5.20
2023-04-13T23:23:53.550Z,5.10
2023-04-13T23:26:30.031Z,4.90
2023-04-13T23:29:19.111Z,5.00
2023-04-13T23:32:16.787Z,4.90
2023-04-13T23:35:18.751Z,4.70
2023-04-13T23:38:01.180Z,4.50
2023-04-13T23:40:42.356Z,4.40
2023-04-13T23:43:17.348Z,4.30
2023-04-13T23:45:52.896Z,4.40
2023-04-13T23:48:31.294Z,4.40
2023-04-13T23:51:03.551Z,4.40
2023-04-13T23:53:49.674Z,4.30
2023-04-13T23:56:31.314Z,4.20
2023-04-13T23:59:02.814Z,4.20
